createdAt,value
2022-08-30T00:02:14.485Z,101644.75
2022-08-30T00:04:40.861Z,101639.91
2022-08-30T00:07:07.257Z,101640.19
2022-08-30T00:09:33.631Z,101635.63
2022-08-30T00:12:00.064Z,101634.38
2022-08-30T00:14:27.467Z,101638.28
2022-08-30T00:16:53.858Z,101643.59
2022-08-30T00:19:20.218Z,101646.13
2022-08-30T00:21:46.570Z,101652.34
2022-08-30T00:24:12.926Z,101647.34
2022-08-30T00:26:39.275Z,101650.34
2022-08-30T00:29:05.650Z,101648.50
2022-08-30T00:31:32.041Z,101648.25
2022-08-30T00:33:58.418Z,101654.84
2022-08-30T00:36:24.770Z,101653.59
2022-08-30T00:38:51.153Z,101650.53
2022-08-30T00:41:17.529Z,101650.72
2022-08-30T00:43:43.947Z,101643.75
2022-08-30T00:46:10.529Z,101652.38
2022-08-30T00:48:37.952Z,101642.09
2022-08-30T00:51:07.470Z,101643.03
2022-08-30T00:53:37.664Z,101647.66
2022-08-30T00:56:04.140Z,101641.72
2022-08-30T00:58:37.466Z,101651.06
2022-08-30T01:01:04.391Z,101655.78
2022-08-30T01:03:30.779Z,101653.84
2022-08-30T01:05:57.134Z,101656.59
2022-08-30T01:08:23.486Z,101659.13
2022-08-30T01:10:50.140Z,101662.66
2022-08-30T01:13:16.569Z,101659.28
2022-08-30T01:15:43.190Z,101658.00
2022-08-30T01:18:11.512Z,101656.91
2022-08-30T01:20:54.649Z,101662.44
2022-08-30T01:23:21.022Z,101663.13
2022-08-30T01:25:47.985Z,101668.34
2022-08-30T01:28:15.551Z,101666.63
2022-08-30T01:30:43.001Z,101660.88
2022-08-30T01:33:09.661Z,101656.69
2022-08-30T01:35:44.125Z,101659.56
2022-08-30T01:38:10.878Z,101660.00
2022-08-30T01:40:37.369Z,101663.38
2022-08-30T01:43:03.806Z,101663.34
2022-08-30T01:45:30.182Z,101662.59
2022-08-30T01:47:56.569Z,101655.13
2022-08-30T01:50:26.208Z,101659.16
2022-08-30T01:52:52.574Z,101652.50
2022-08-30T01:55:19.548Z,101652.34
2022-08-30T01:57:46.968Z,101650.22
2022-08-30T02:00:13.474Z,101655.91
2022-08-30T02:02:39.835Z,101660.16
2022-08-30T02:05:06.875Z,101659.44
2022-08-30T02:07:33.246Z,101653.94
2022-08-30T02:09:59.600Z,101662.16
2022-08-30T02:12:25.972Z,101658.13
2022-08-30T02:14:52.332Z,101657.53
2022-08-30T02:17:19.425Z,101654.13
2022-08-30T02:19:45.781Z,101656.06
2022-08-30T02:22:12.125Z,101643.63
2022-08-30T02:24:38.520Z,101650.94
2022-08-30T02:27:04.990Z,101651.25
2022-08-30T02:29:31.336Z,101655.63
2022-08-30T02:31:57.685Z,101649.97
2022-08-30T02:34:24.046Z,101656.97
2022-08-30T02:36:50.506Z,101647.88
2022-08-30T02:39:16.862Z,101655.63
2022-08-30T02:41:43.229Z,101652.13
2022-08-30T02:44:10.714Z,101646.94
2022-08-30T02:46:37.098Z,101643.19
2022-08-30T02:49:23.770Z,101649.66
2022-08-30T02:51:49.783Z,101647.19
2022-08-30T02:54:19.835Z,101648.41
2022-08-30T02:56:47.153Z,101643.69
2022-08-30T02:59:13.979Z,101644.31
2022-08-30T03:01:40.447Z,101643.84
2022-08-30T03:04:06.920Z,101648.94
2022-08-30T03:06:33.578Z,101652.31
2022-08-30T03:08:59.974Z,101651.66
2022-08-30T03:11:26.735Z,101654.81
2022-08-30T03:13:53.098Z,101646.78
2022-08-30T03:16:19.550Z,101646.94
2022-08-30T03:18:45.953Z,101646.72
2022-08-30T03:21:12.759Z,101650.44
2022-08-30T03:23:40.782Z,101646.97
2022-08-30T03:26:07.537Z,101647.94
2022-08-30T03:28:34.098Z,101646.59
2022-08-30T03:31:00.450Z,101649.72
2022-08-30T03:33:26.818Z,101653.97
2022-08-30T03:35:53.767Z,101655.72
2022-08-30T03:38:20.152Z,101656.47
2022-08-30T03:40:46.542Z,101656.47
2022-08-30T03:43:13.251Z,101656.72
2022-08-30T03:45:39.702Z,101654.97
2022-08-30T03:48:06.095Z,101659.72
2022-08-30T03:50:32.453Z,101663.97
2022-08-30T03:53:01.376Z,101667.47
2022-08-30T03:55:28.491Z,101671.22
2022-08-30T03:57:54.895Z,101669.97
2022-08-30T04:00:22.198Z,101675.22
2022-08-30T04:02:48.565Z,101678.22
2022-08-30T04:05:14.921Z,101679.72
2022-08-30T04:07:45.455Z,101676.22
2022-08-30T04:10:11.835Z,101679.72
2022-08-30T04:12:38.784Z,101683.44
2022-08-30T04:15:05.425Z,101678.63
2022-08-30T04:17:31.807Z,101678.69
2022-08-30T04:19:58.173Z,101683.09
2022-08-30T04:22:24.532Z,101681.16
2022-08-30T04:24:50.910Z,101676.84
2022-08-30T04:27:20.219Z,101680.22
2022-08-30T04:29:47.161Z,101682.69
2022-08-30T04:32:13.607Z,101678.88
2022-08-30T04:34:39.961Z,101675.50
2022-08-30T04:37:07.079Z,101687.50
2022-08-30T04:39:36.361Z,101686.25
2022-08-30T04:42:03.410Z,101686.81
2022-08-30T04:44:29.788Z,101673.69
2022-08-30T04:46:56.198Z,101682.59
2022-08-30T04:49:22.915Z,101687.75
2022-08-30T04:51:49.295Z,101689.13
2022-08-30T04:54:15.654Z,101683.41
2022-08-30T04:56:43.641Z,101688.34
2022-08-30T04:59:10.013Z,101691.19
2022-08-30T05:01:45.103Z,101691.72
2022-08-30T05:04:12.355Z,101697.72
2022-08-30T05:06:38.759Z,101696.06
2022-08-30T05:09:05.541Z,101691.00
2022-08-30T05:11:31.923Z,101697.22
2022-08-30T05:13:58.275Z,101689.53
2022-08-30T05:16:24.701Z,101694.28
2022-08-30T05:18:51.731Z,101701.53
2022-08-30T05:21:22.010Z,101707.53
2022-08-30T05:23:48.392Z,101706.28
2022-08-30T05:26:15.966Z,101714.03
2022-08-30T05:28:42.442Z,101717.78
2022-08-30T05:31:14.030Z,101712.81
2022-08-30T05:33:40.595Z,101714.75
2022-08-30T05:36:07.402Z,101719.09
2022-08-30T05:38:33.758Z,101722.19
2022-08-30T05:41:00.141Z,101721.31
2022-08-30T05:43:26.807Z,101722.94
2022-08-30T05:46:03.037Z,101723.00
2022-08-30T05:48:29.473Z,101722.59
2022-08-30T05:51:02.957Z,101725.47
2022-08-30T05:53:29.304Z,101726.66
2022-08-30T05:55:55.679Z,101726.66
2022-08-30T05:58:22.049Z,101724.09
2022-08-30T06:00:48.441Z,101725.72
2022-08-30T06:03:14.861Z,101723.72
2022-08-30T06:05:41.338Z,101727.34
2022-08-30T06:08:07.785Z,101725.72
2022-08-30T06:10:34.147Z,101729.72
2022-08-30T06:13:00.508Z,101723.78
2022-08-30T06:15:26.954Z,101723.66
2022-08-30T06:17:53.420Z,101734.94
2022-08-30T06:20:20.361Z,101731.69
2022-08-30T06:22:46.773Z,101731.09
2022-08-30T06:25:13.158Z,101738.84
2022-08-30T06:27:39.544Z,101733.22
2022-08-30T06:30:08.211Z,101737.59
2022-08-30T06:32:34.791Z,101736.66
2022-08-30T06:35:01.145Z,101737.13
2022-08-30T06:37:29.582Z,101742.88
2022-08-30T06:39:57.413Z,101752.66
2022-08-30T06:42:24.400Z,101747.38
2022-08-30T06:44:50.934Z,101748.38
2022-08-30T06:47:17.869Z,101748.72
2022-08-30T06:49:44.225Z,101750.88
2022-08-30T06:52:10.773Z,101741.50
2022-08-30T06:54:37.382Z,101736.66
2022-08-30T06:57:03.785Z,101748.38
2022-08-30T06:59:31.478Z,101740.59
2022-08-30T07:01:58.001Z,101747.56
2022-08-30T07:04:24.458Z,101748.72
2022-08-30T07:06:50.845Z,101746.22
2022-08-30T07:09:17.289Z,101744.09
2022-08-30T07:11:44.666Z,101745.47
2022-08-30T07:14:11.026Z,101743.78
2022-08-30T07:16:37.562Z,101756.84
2022-08-30T07:19:04.371Z,101760.56
2022-08-30T07:21:34.341Z,101755.00
2022-08-30T07:24:00.707Z,101743.78
2022-08-30T07:26:33.888Z,101745.16
2022-08-30T07:29:00.331Z,101747.78
2022-08-30T07:31:26.703Z,101754.69
2022-08-30T07:33:53.208Z,101752.69
2022-08-30T07:36:19.586Z,101755.09
2022-08-30T07:38:46.047Z,101761.50
2022-08-30T07:41:23.163Z,101755.28
2022-08-30T07:43:49.689Z,101758.13
2022-08-30T07:46:16.296Z,101769.88
2022-08-30T07:48:42.674Z,101767.84
2022-08-30T07:51:11.942Z,101768.72
2022-08-30T07:53:38.354Z,101771.47
2022-08-30T07:56:05.626Z,101778.63
2022-08-30T07:58:32.006Z,101766.81
2022-08-30T08:00:59.528Z,101775.72
2022-08-30T08:03:26.442Z,101771.47
2022-08-30T08:05:53.284Z,101771.97
2022-08-30T08:08:19.797Z,101769.50
2022-08-30T08:10:46.386Z,101767.25
2022-08-30T08:13:12.779Z,101772.28
2022-08-30T08:15:39.241Z,101771.22
2022-08-30T08:18:05.745Z,101771.22
2022-08-30T08:20:32.726Z,101766.31
2022-08-30T08:22:59.088Z,101764.09
2022-08-30T08:25:25.428Z,101769.94
2022-08-30T08:27:52.008Z,101779.88
2022-08-30T08:30:19.168Z,101778.72
2022-08-30T08:32:45.546Z,101784.25
2022-08-30T08:35:11.927Z,101797.75
2022-08-30T08:37:38.534Z,101793.00
2022-08-30T08:40:05.447Z,101795.03
2022-08-30T08:42:40.869Z,101793.75
2022-08-30T08:45:11.396Z,101798.88
2022-08-30T08:47:41.941Z,101790.97
2022-08-30T08:50:11.298Z,101796.00
2022-08-30T08:53:06.989Z,101802.28
2022-08-30T08:55:33.363Z,101798.00
2022-08-30T08:57:59.730Z,101800.25
2022-08-30T09:00:26.097Z,101805.25
2022-08-30T09:02:59.898Z,101807.41
2022-08-30T09:05:27.513Z,101798.22
2022-08-30T09:08:09.163Z,101799.94
2022-08-30T09:10:49.942Z,101791.22
2022-08-30T09:13:19.096Z,101797.72
2022-08-30T09:15:46.874Z,101795.47
2022-08-30T09:18:19.685Z,101801.22
2022-08-30T09:20:48.935Z,101813.63
2022-08-30T09:23:15.210Z,101807.00
2022-08-30T09:25:54.733Z,101811.28
2022-08-30T09:28:22.111Z,101813.50
2022-08-30T09:31:17.752Z,101808.50
2022-08-30T09:34:01.682Z,101815.00
2022-08-30T09:36:28.881Z,101811.47
2022-08-30T09:39:01.967Z,101807.97
2022-08-30T09:41:37.722Z,101808.84
2022-08-30T09:44:05.484Z,101815.34
2022-08-30T09:46:31.919Z,101814.81
2022-08-30T09:48:58.689Z,101810.66
2022-08-30T09:51:32.472Z,101803.66
2022-08-30T09:54:17.124Z,101809.41
2022-08-30T09:57:05.366Z,101812.41
2022-08-30T09:59:59.304Z,101814.66
2022-08-30T10:02:41.401Z,101801.09
2022-08-30T10:05:23.014Z,101804.09
2022-08-30T10:07:58.223Z,101798.31
2022-08-30T10:10:27.325Z,101798.44
2022-08-30T10:12:57.569Z,101797.06
2022-08-30T10:15:35.534Z,101814.47
2022-08-30T10:18:04.535Z,101803.81
2022-08-30T10:20:33.815Z,101801.44
2022-08-30T10:23:02.159Z,101805.59
2022-08-30T10:25:42.614Z,101802.13
2022-08-30T10:28:28.335Z,101805.44
2022-08-30T10:30:56.193Z,101799.69
2022-08-30T10:33:31.925Z,101796.13
2022-08-30T10:35:58.543Z,101801.28
2022-08-30T10:38:29.526Z,101795.50
2022-08-30T10:41:13.734Z,101791.78
2022-08-30T10:43:40.001Z,101789.00
2022-08-30T10:46:08.594Z,101783.88
2022-08-30T10:48:37.430Z,101786.13
2022-08-30T10:51:08.483Z,101781.97
2022-08-30T10:53:42.854Z,101783.03
2022-08-30T10:56:10.235Z,101784.25
2022-08-30T10:58:39.897Z,101784.78
2022-08-30T11:04:14.337Z,101769.84
2022-08-30T11:06:42.891Z,101783.00
2022-08-30T11:09:14.407Z,101777.81
2022-08-30T11:11:52.254Z,101775.44
2022-08-30T11:14:18.826Z,101783.50
2022-08-30T11:16:48.701Z,101777.94
2022-08-30T11:19:26.311Z,101775.78
2022-08-30T11:21:52.661Z,101767.25
2022-08-30T11:24:21.657Z,101775.34
2022-08-30T11:26:48.384Z,101773.22
2022-08-30T11:29:27.595Z,101760.84
2022-08-30T11:31:57.444Z,101759.53
2022-08-30T11:34:43.299Z,101760.06
2022-08-30T11:37:25.584Z,101755.59
2022-08-30T11:39:52.579Z,101754.59
2022-08-30T11:42:24.901Z,101750.72
2022-08-30T11:45:14.619Z,101745.50
2022-08-30T11:47:47.779Z,101744.59
2022-08-30T11:50:27.068Z,101746.53
2022-08-30T11:52:58.736Z,101740.19
2022-08-30T11:55:27.069Z,101727.81
2022-08-30T11:58:05.856Z,101736.22
2022-08-30T12:00:34.722Z,101736.50
2022-08-30T12:03:05.353Z,101733.00
2022-08-30T12:05:38.531Z,101738.19
2022-08-30T12:08:08.300Z,101730.38
2022-08-30T12:10:45.470Z,101736.16
2022-08-30T12:13:32.452Z,101737.00
2022-08-30T12:16:03.817Z,101727.78
2022-08-30T12:18:32.213Z,101725.22
2022-08-30T12:21:09.117Z,101723.84
2022-08-30T12:23:54.477Z,101719.09
2022-08-30T12:26:20.950Z,101722.81
2022-08-30T12:28:48.966Z,101719.63
2022-08-30T12:31:17.522Z,101721.19
2022-08-30T12:33:44.824Z,101722.63
2022-08-30T12:36:15.521Z,101713.84
2022-08-30T12:38:41.968Z,101719.81
2022-08-30T12:41:08.975Z,101721.16
2022-08-30T12:43:40.303Z,101715.44
2022-08-30T12:46:08.873Z,101721.50
2022-08-30T12:48:38.399Z,101714.31
2022-08-30T12:51:07.159Z,101713.66
2022-08-30T12:53:38.582Z,101716.44
2022-08-30T12:56:06.926Z,101708.53
2022-08-30T12:58:35.829Z,101708.25
2022-08-30T13:01:20.016Z,101700.50
2022-08-30T13:04:02.023Z,101704.50
2022-08-30T13:06:43.774Z,101703.91
2022-08-30T13:09:11.283Z,101705.03
2022-08-30T13:11:37.633Z,101694.09
2022-08-30T13:14:20.326Z,101699.22
2022-08-30T13:16:47.181Z,101688.63
2022-08-30T13:19:26.733Z,101688.88
2022-08-30T13:21:53.786Z,101682.94
2022-08-30T13:24:23.578Z,101677.00
2022-08-30T13:26:51.815Z,101684.88
2022-08-30T13:29:19.091Z,101685.06
2022-08-30T13:31:45.601Z,101684.41
2022-08-30T13:34:12.045Z,101680.34
2022-08-30T13:36:40.137Z,101678.84
2022-08-30T13:39:12.263Z,101681.56
2022-08-30T13:41:39.328Z,101684.22
2022-08-30T13:44:11.926Z,101676.03
2022-08-30T13:46:39.832Z,101678.91
2022-08-30T13:52:18.917Z,101671.72
2022-08-30T13:54:46.273Z,101671.88
2022-08-30T13:57:16.576Z,101670.22
2022-08-30T13:59:42.970Z,101672.09
2022-08-30T14:02:16.283Z,101670.06
2022-08-30T14:04:42.781Z,101661.66
2022-08-30T14:07:13.907Z,101668.03
2022-08-30T14:09:43.241Z,101671.00
2022-08-30T14:12:09.624Z,101668.09
2022-08-30T14:14:43.317Z,101667.28
2022-08-30T14:17:10.403Z,101674.88
2022-08-30T14:19:38.969Z,101668.91
2022-08-30T14:22:05.319Z,101675.44
2022-08-30T14:24:31.852Z,101667.50
2022-08-30T14:26:58.606Z,101673.59
2022-08-30T14:29:26.040Z,101675.22
2022-08-30T14:31:52.691Z,101679.41
2022-08-30T14:34:19.129Z,101677.38
2022-08-30T14:36:45.737Z,101675.34
2022-08-30T14:39:14.471Z,101671.34
2022-08-30T14:41:43.668Z,101681.38
2022-08-30T14:44:10.779Z,101682.44
2022-08-30T14:46:37.206Z,101686.53
2022-08-30T14:49:03.631Z,101676.19
2022-08-30T14:51:32.262Z,101684.00
2022-08-30T14:54:00.029Z,101684.69
2022-08-30T14:56:26.377Z,101679.22
2022-08-30T14:58:52.987Z,101683.13
2022-08-30T15:01:19.671Z,101688.63
2022-08-30T15:03:46.178Z,101685.63
2022-08-30T15:06:12.545Z,101675.56
2022-08-30T15:08:39.399Z,101689.38
2022-08-30T15:11:09.378Z,101680.97
2022-08-30T15:13:35.742Z,101683.66
2022-08-30T15:16:02.225Z,101686.31
2022-08-30T15:18:28.655Z,101686.03
2022-08-30T15:20:56.210Z,101679.50
2022-08-30T15:23:24.810Z,101691.63
2022-08-30T15:25:51.503Z,101688.72
2022-08-30T15:28:19.094Z,101686.41
2022-08-30T15:30:45.563Z,101683.44
2022-08-30T15:33:11.946Z,101675.88
2022-08-30T15:35:38.517Z,101679.69
2022-08-30T15:38:04.895Z,101686.59
2022-08-30T15:40:32.317Z,101678.00
2022-08-30T15:42:58.862Z,101671.03
2022-08-30T15:45:25.743Z,101667.75
2022-08-30T15:47:52.111Z,101669.81
2022-08-30T15:50:18.551Z,101669.69
2022-08-30T15:52:44.921Z,101670.00
2022-08-30T15:55:11.273Z,101670.00
2022-08-30T15:57:37.637Z,101670.00
2022-08-30T16:00:06.443Z,101672.78
2022-08-30T16:02:35.152Z,101668.31
2022-08-30T16:05:01.648Z,101672.41
2022-08-30T16:07:28.014Z,101664.03
2022-08-30T16:09:54.389Z,101669.25
2022-08-30T16:12:23.840Z,101668.31
2022-08-30T16:14:50.344Z,101662.16
2022-08-30T16:17:16.700Z,101665.34
2022-08-30T16:19:44.626Z,101663.53
2022-08-30T16:22:11.311Z,101669.06
2022-08-30T16:24:38.275Z,101669.16
2022-08-30T16:27:05.574Z,101660.28
2022-08-30T16:29:35.153Z,101670.53
2022-08-30T16:32:01.538Z,101662.16
2022-08-30T16:34:27.914Z,101671.13
2022-08-30T16:36:54.387Z,101676.13
2022-08-30T16:39:20.754Z,101666.63
2022-08-30T16:41:47.146Z,101656.66
2022-08-30T16:44:15.950Z,101657.22
2022-08-30T16:46:52.594Z,101661.88
2022-08-30T16:49:19.868Z,101659.16
2022-08-30T16:51:46.281Z,101645.94
2022-08-30T16:54:13.327Z,101658.03
2022-08-30T16:56:39.716Z,101651.81
2022-08-30T16:59:10.881Z,101653.03
2022-08-30T17:01:38.446Z,101652.25
2022-08-30T17:04:05.326Z,101648.72
2022-08-30T17:06:32.155Z,101651.44
2022-08-30T17:08:58.569Z,101658.72
2022-08-30T17:11:24.939Z,101657.31
2022-08-30T17:13:51.383Z,101657.84
2022-08-30T17:16:22.565Z,101663.47
2022-08-30T17:18:54.133Z,101666.63
2022-08-30T17:21:20.507Z,101660.59
2022-08-30T17:23:48.182Z,101664.03
2022-08-30T17:26:15.731Z,101667.19
2022-08-30T17:28:42.103Z,101675.22
2022-08-30T17:31:08.461Z,101671.47
2022-08-30T17:33:38.964Z,101676.69
2022-08-30T17:36:06.472Z,101680.97
2022-08-30T17:38:32.893Z,101688.16
2022-08-30T17:41:31.103Z,101693.53
2022-08-30T17:43:57.466Z,101691.22
2022-08-30T17:46:25.292Z,101694.75
2022-08-30T17:48:57.977Z,101697.66
2022-08-30T17:51:28.062Z,101700.44
2022-08-30T17:53:54.432Z,101704.00
2022-08-30T17:56:21.818Z,101703.16
2022-08-30T17:58:50.359Z,101704.44
2022-08-30T18:01:17.165Z,101707.03
2022-08-30T18:03:45.300Z,101704.44
2022-08-30T18:06:12.063Z,101711.81
2022-08-30T18:08:38.443Z,101710.41
2022-08-30T18:11:05.982Z,101714.72
2022-08-30T18:13:32.468Z,101722.59
2022-08-30T18:16:00.620Z,101721.75
2022-08-30T18:18:27.686Z,101725.00
2022-08-30T18:20:54.863Z,101723.94
2022-08-30T18:23:24.189Z,101733.69
2022-08-30T18:25:55.425Z,101733.38
2022-08-30T18:28:21.844Z,101727.28
2022-08-30T18:30:48.206Z,101728.22
2022-08-30T18:33:14.570Z,101734.06
2022-08-30T18:35:47.552Z,101727.41
2022-08-30T18:38:14.907Z,101738.41
2022-08-30T18:40:41.320Z,101748.47
2022-08-30T18:43:09.971Z,101747.72
2022-08-30T18:45:36.627Z,101742.69
2022-08-30T18:48:03.786Z,101736.41
2022-08-30T18:50:30.230Z,101750.50
2022-08-30T18:52:57.104Z,101740.34
2022-08-30T18:55:26.837Z,101740.25
2022-08-30T18:57:53.198Z,101746.78
2022-08-30T19:00:21.083Z,101745.28
2022-08-30T19:02:47.522Z,101741.44
2022-08-30T19:05:15.969Z,101736.41
2022-08-30T19:07:42.862Z,101738.56
2022-08-30T19:10:12.255Z,101734.25
2022-08-30T19:12:38.977Z,101733.31
2022-08-30T19:15:11.070Z,101738.34
2022-08-30T19:17:38.363Z,101744.13
2022-08-30T19:20:05.775Z,101738.34
2022-08-30T19:23:03.484Z,101739.09
2022-08-30T19:25:18.899Z,101740.59
2022-08-30T19:27:45.261Z,101741.97
2022-08-30T19:30:15.193Z,101747.66
2022-08-30T19:32:45.054Z,101749.91
2022-08-30T19:35:13.658Z,101751.19
2022-08-30T19:37:44.202Z,101760.28
2022-08-30T19:40:11.458Z,101756.88
2022-08-30T19:42:43.243Z,101747.78
2022-08-30T19:45:12.763Z,101763.72
2022-08-30T19:47:39.151Z,101753.53
2022-08-30T19:50:05.877Z,101752.25
2022-08-30T19:52:32.249Z,101753.75
2022-08-30T19:54:59.159Z,101762.31
2022-08-30T19:57:25.546Z,101756.53
2022-08-30T19:59:51.935Z,101758.13
2022-08-30T20:02:18.370Z,101759.44
2022-08-30T20:04:45.008Z,101758.03
2022-08-30T20:07:14.271Z,101763.59
2022-08-30T20:09:40.710Z,101760.63
2022-08-30T20:12:07.185Z,101768.09
2022-08-30T20:14:33.541Z,101767.13
2022-08-30T20:16:59.939Z,101765.09
2022-08-30T20:19:29.320Z,101756.53
2022-08-30T20:21:55.912Z,101778.03
2022-08-30T20:24:32.045Z,101785.41
2022-08-30T20:26:58.478Z,101782.41
2022-08-30T20:29:24.823Z,101778.03
2022-08-30T20:31:51.188Z,101782.19
2022-08-30T20:34:17.546Z,101785.31
2022-08-30T20:36:43.901Z,101786.16
2022-08-30T20:39:10.251Z,101787.66
2022-08-30T20:41:42.920Z,101787.84
2022-08-30T20:44:11.929Z,101780.59
2022-08-30T20:46:45.033Z,101779.13
2022-08-30T20:49:11.684Z,101787.00
2022-08-30T20:51:39.497Z,101784.88
2022-08-30T20:54:05.919Z,101784.78
2022-08-30T20:56:34.233Z,101785.53
2022-08-30T20:59:02.499Z,101787.34
2022-08-30T21:01:30.487Z,101793.84
2022-08-30T21:03:56.899Z,101795.16
2022-08-30T21:06:23.413Z,101795.88
2022-08-30T21:08:49.761Z,101800.91
2022-08-30T21:11:16.166Z,101797.19
2022-08-30T21:13:42.661Z,101792.66
2022-08-30T21:16:09.026Z,101796.72
2022-08-30T21:18:38.693Z,101791.72
2022-08-30T21:21:15.811Z,101789.22
2022-08-30T21:23:42.770Z,101789.47
2022-08-30T21:26:09.147Z,101790.97
2022-08-30T21:28:35.509Z,101789.00
2022-08-30T21:31:05.592Z,101788.78
2022-08-30T21:33:32.009Z,101791.56
2022-08-30T21:36:17.050Z,101798.84
2022-08-30T21:38:43.792Z,101801.59
2022-08-30T21:41:10.286Z,101790.06
2022-08-30T21:43:36.646Z,101789.97
2022-08-30T21:46:06.816Z,101779.94
2022-08-30T21:48:33.817Z,101783.97
2022-08-30T21:51:07.293Z,101786.72
2022-08-30T21:53:33.687Z,101788.13
2022-08-30T21:56:06.289Z,101793.91
2022-08-30T21:58:32.839Z,101786.84
2022-08-30T22:00:59.243Z,101791.13
2022-08-30T22:03:25.718Z,101780.34
2022-08-30T22:05:52.416Z,101789.97
2022-08-30T22:08:18.767Z,101795.94
2022-08-30T22:10:45.138Z,101804.38
2022-08-30T22:13:12.979Z,101802.88
2022-08-30T22:15:39.913Z,101809.19
2022-08-30T22:18:06.275Z,101805.44
2022-08-30T22:20:32.655Z,101805.78
2022-08-30T22:22:59.030Z,101811.84
2022-08-30T22:25:25.418Z,101811.31
2022-08-30T22:27:51.993Z,101808.94
2022-08-30T22:30:18.360Z,101813.88
2022-08-30T22:32:44.747Z,101809.25
2022-08-30T22:35:11.369Z,101810.88
2022-08-30T22:37:37.730Z,101812.25
2022-08-30T22:40:04.126Z,101810.22
2022-08-30T22:42:30.499Z,101807.97
2022-08-30T22:44:56.871Z,101808.22
2022-08-30T22:47:23.265Z,101805.44
2022-08-30T22:49:49.655Z,101811.22
2022-08-30T22:52:16.036Z,101807.97
2022-08-30T22:54:42.393Z,101809.59
2022-08-30T22:57:10.277Z,101814.41
2022-08-30T22:59:36.835Z,101812.59
2022-08-30T23:02:03.459Z,101814.19
2022-08-30T23:04:30.523Z,101817.47
2022-08-30T23:06:56.893Z,101818.16
2022-08-30T23:09:23.283Z,101815.03
2022-08-30T23:11:49.646Z,101824.31
2022-08-30T23:14:16.094Z,101827.31
2022-08-30T23:16:42.485Z,101828.03
2022-08-30T23:19:09.058Z,101833.81
2022-08-30T23:21:35.422Z,101829.44
2022-08-30T23:24:20.252Z,101818.66
2022-08-30T23:27:05.251Z,101830.72
2022-08-30T23:29:50.103Z,101832.56
2022-08-30T23:32:34.982Z,101834.13
2022-08-30T23:35:19.784Z,101839.16
2022-08-30T23:38:05.140Z,101843.75
2022-08-30T23:40:50.121Z,101829.03
2022-08-30T23:43:34.869Z,101839.06
2022-08-30T23:46:19.931Z,101839.81
2022-08-30T23:49:05.613Z,101840.25
2022-08-30T23:51:50.618Z,101841.09
2022-08-30T23:54:35.461Z,101834.03
2022-08-30T23:57:20.436Z,101838.09
